createdAt,value
2024-03-09T00:58:45.705Z,100340.31
2024-03-09T01:08:00.835Z,100320.72
2024-03-09T01:24:06.762Z,100288.03
2024-03-09T01:27:24.545Z,100290.69
2024-03-09T01:33:38.222Z,100276.81
2024-03-09T01:43:24.302Z,100259.97
2024-03-09T01:49:52.848Z,100237.66
2024-03-09T01:52:44.569Z,100231.69
2024-03-09T01:55:51.753Z,100235.12
2024-03-09T02:02:31.127Z,100234.09
2024-03-09T02:05:40.844Z,100231.25
2024-03-09T02:09:07.061Z,100233.34
2024-03-09T02:12:16.007Z,100240.09
2024-03-09T02:15:07.053Z,100235.78
2024-03-09T02:17:57.544Z,100230.53
2024-03-09T02:24:14.780Z,100238.22
2024-03-09T02:27:13.406Z,100233.66
2024-03-09T02:30:42.182Z,100233.47
2024-03-09T02:37:24.104Z,100224.03
2024-03-09T02:40:16.397Z,100237.25
2024-03-09T02:43:30.507Z,100224.03
2024-03-09T02:49:30.727Z,100215.22
2024-03-09T02:55:27.301Z,100219.34
2024-03-09T02:58:20.482Z,100220.63
2024-03-09T03:01:12.192Z,100215.03
2024-03-09T03:04:01.210Z,100211.13
2024-03-09T03:07:15.207Z,100218.94
2024-03-09T03:10:03.658Z,100211.91
2024-03-09T03:13:00.462Z,100208.56
2024-03-09T03:16:25.739Z,100211.66
2024-03-09T03:19:25.997Z,100207.56
2024-03-09T03:26:06.062Z,100216.28
2024-03-09T03:29:29.869Z,100220.13
2024-03-09T03:32:28.860Z,100224.44
2024-03-09T03:35:29.906Z,100221.75
2024-03-09T03:38:08.741Z,100218.62
2024-03-09T03:40:54.237Z,100212.78
2024-03-09T03:43:34.218Z,100217.56
2024-03-09T03:46:44.208Z,100218.34
2024-03-09T03:49:42.523Z,100214.63
2024-03-09T03:52:30.554Z,100215.34
2024-03-09T03:55:28.124Z,100214.81
2024-03-09T03:58:29.148Z,100217.22
2024-03-09T04:03:50.505Z,100209.38
2024-03-09T04:06:55.054Z,100218.22
2024-03-09T04:09:42.980Z,100210.34
2024-03-09T04:15:21.398Z,100209.56
2024-03-09T04:18:07.750Z,100211.09
2024-03-09T04:20:45.089Z,100207.34
2024-03-09T04:23:34.854Z,100208.47
2024-03-09T04:26:18.531Z,100197.84
2024-03-09T04:28:57.394Z,100205.47
2024-03-09T04:31:47.341Z,100204.62
2024-03-09T04:34:25.706Z,100213.13
2024-03-09T04:37:12.052Z,100211.53
2024-03-09T04:40:03.791Z,100202.94
2024-03-09T04:42:35.977Z,100204.00
2024-03-09T04:45:17.001Z,100194.72
2024-03-09T04:47:55.007Z,100199.91
2024-03-09T04:50:43.726Z,100209.06
2024-03-09T04:53:25.476Z,100207.38
2024-03-09T04:56:03.989Z,100205.47
2024-03-09T04:58:40.210Z,100202.66
2024-03-09T05:01:18.531Z,100209.16
2024-03-09T05:03:57.032Z,100208.19
2024-03-09T05:06:43.316Z,100199.59
2024-03-09T05:09:27.361Z,100206.41
2024-03-09T05:12:10.621Z,100202.44
2024-03-09T05:14:50.288Z,100208.09
2024-03-09T05:17:32.824Z,100212.91
2024-03-09T05:20:35.550Z,100206.50
2024-03-09T05:23:15.208Z,100215.56
2024-03-09T05:26:01.520Z,100216.37
2024-03-09T05:28:48.752Z,100214.00
2024-03-09T05:31:34.614Z,100218.69
2024-03-09T05:34:20.786Z,100214.44
2024-03-09T05:37:07.757Z,100218.72
2024-03-09T05:40:12.331Z,100219.16
2024-03-09T05:42:58.239Z,100212.06
2024-03-09T05:45:40.082Z,100215.25
2024-03-09T05:48:15.892Z,100217.25
2024-03-09T05:51:00.661Z,100218.44
2024-03-09T05:53:40.180Z,100223.41
2024-03-09T05:56:19.536Z,100228.78
2024-03-09T05:59:09.802Z,100222.59
2024-03-09T06:01:50.766Z,100225.09
2024-03-09T06:04:32.998Z,100220.09
2024-03-09T06:07:15.399Z,100230.37
2024-03-09T06:10:03.901Z,100232.94
2024-03-09T06:12:53.053Z,100229.63
2024-03-09T06:15:39.681Z,100231.38
2024-03-09T06:18:26.859Z,100238.66
2024-03-09T06:21:14.470Z,100236.16
2024-03-09T06:23:58.230Z,100235.56
2024-03-09T06:26:45.580Z,100237.44
2024-03-09T06:29:29.521Z,100236.66
2024-03-09T06:32:46.003Z,100231.69
2024-03-09T06:38:41.622Z,100241.69
2024-03-09T06:44:52.262Z,100221.56
2024-03-09T06:47:53.592Z,100221.56
2024-03-09T06:50:48.713Z,100215.69
2024-03-09T06:53:53.502Z,100223.75
2024-03-09T06:57:13.443Z,100240.00
2024-03-09T07:00:19.708Z,100235.44
2024-03-09T07:03:13.582Z,100244.44
2024-03-09T07:06:01.795Z,100243.53
2024-03-09T07:12:20.693Z,100235.41
2024-03-09T07:19:16.027Z,100233.94
2024-03-09T09:06:33.192Z,100269.53
2024-03-09T09:09:01.702Z,100276.91
2024-03-09T09:11:32.975Z,100272.41
2024-03-09T09:14:03.350Z,100267.03
2024-03-09T09:16:31.347Z,100265.72
2024-03-09T09:18:59.930Z,100265.19
2024-03-09T09:21:28.105Z,100256.00
2024-03-09T09:23:56.350Z,100260.22
2024-03-09T09:26:24.245Z,100257.56
2024-03-09T09:28:55.180Z,100267.09
2024-03-09T09:31:25.385Z,100272.13
2024-03-09T09:33:53.660Z,100265.66
2024-03-09T09:36:21.554Z,100258.34
2024-03-09T09:38:50.259Z,100248.50
2024-03-09T09:41:18.565Z,100245.69
2024-03-09T09:43:48.997Z,100254.03
2024-03-09T09:49:41.807Z,100246.66
2024-03-09T09:55:33.089Z,100243.72
2024-03-09T09:58:02.279Z,100231.88
2024-03-09T10:00:29.961Z,100227.56
2024-03-09T10:02:59.914Z,100222.75
2024-03-09T10:05:29.919Z,100219.19
2024-03-09T10:08:02.623Z,100217.91
2024-03-09T10:10:32.209Z,100216.34
2024-03-09T10:13:10.298Z,100216.97
2024-03-09T10:15:39.656Z,100224.63
2024-03-09T10:18:10.919Z,100214.28
2024-03-09T10:20:39.462Z,100209.94
2024-03-09T10:23:10.229Z,100209.78
2024-03-09T10:25:49.383Z,100199.59
2024-03-09T10:28:17.423Z,100201.38
2024-03-09T10:30:47.237Z,100186.25
2024-03-09T10:33:18.252Z,100182.50
2024-03-09T10:35:49.386Z,100178.00
2024-03-09T10:38:18.530Z,100180.66
2024-03-09T10:40:46.327Z,100182.00
2024-03-09T10:43:14.682Z,100174.34
2024-03-09T10:45:42.697Z,100193.41
2024-03-09T10:48:11.886Z,100184.75
2024-03-09T10:54:09.438Z,100187.00
2024-03-09T10:56:37.631Z,100177.31
2024-03-09T10:59:07.196Z,100186.81
2024-03-09T11:01:37.300Z,100177.38
2024-03-09T11:04:06.025Z,100186.94
2024-03-09T11:06:33.537Z,100186.37
2024-03-09T11:09:08.864Z,100184.75
2024-03-09T11:11:37.504Z,100186.53
2024-03-09T11:14:05.281Z,100170.50
2024-03-09T11:16:33.608Z,100162.47
2024-03-09T11:19:01.785Z,100162.59
2024-03-09T11:21:37.408Z,100169.69
2024-03-09T11:24:13.346Z,100162.44
2024-03-09T11:26:47.454Z,100169.13
2024-03-09T11:29:17.657Z,100160.44
2024-03-09T11:31:46.638Z,100154.72
2024-03-09T11:34:14.925Z,100150.84
2024-03-09T11:36:46.181Z,100151.66
2024-03-09T11:39:15.308Z,100140.00
2024-03-09T11:41:47.825Z,100136.50
2024-03-09T11:44:21.829Z,100146.28
2024-03-09T11:46:50.237Z,100137.91
2024-03-09T11:49:18.003Z,100131.78
2024-03-09T11:51:46.854Z,100117.16
2024-03-09T11:54:18.250Z,100129.69
2024-03-09T11:56:47.416Z,100119.81
2024-03-09T11:59:16.891Z,100117.44
2024-03-09T12:01:50.701Z,100111.72
2024-03-09T12:04:21.938Z,100103.06
2024-03-09T12:06:49.405Z,100094.13
2024-03-09T12:09:17.676Z,100096.62
2024-03-09T12:11:48.079Z,100087.97
2024-03-09T12:14:16.870Z,100089.47
2024-03-09T12:16:46.497Z,100097.00
2024-03-09T12:19:15.982Z,100099.50
2024-03-09T12:21:46.957Z,100094.66
2024-03-09T12:24:15.449Z,100093.50
2024-03-09T12:26:43.251Z,100091.75
2024-03-09T12:29:15.497Z,100088.25
2024-03-09T12:31:44.333Z,100086.06
2024-03-09T12:34:15.028Z,100089.53
2024-03-09T12:36:52.745Z,100089.41
2024-03-09T12:42:38.047Z,100082.66
2024-03-09T12:45:06.896Z,100075.78
2024-03-09T12:47:35.081Z,100078.59
2024-03-09T12:50:04.934Z,100083.91
2024-03-09T12:52:37.173Z,100086.34
2024-03-09T12:55:09.888Z,100078.84
2024-03-09T12:57:37.881Z,100073.31
2024-03-09T13:00:13.479Z,100064.09
2024-03-09T13:03:02.535Z,100070.16
2024-03-09T13:05:34.667Z,100063.53
2024-03-09T13:08:08.689Z,100055.50
2024-03-09T13:10:38.517Z,100054.94
2024-03-09T13:13:08.007Z,100053.00
2024-03-09T13:15:38.898Z,100067.56
2024-03-09T13:18:07.498Z,100055.06
2024-03-09T13:20:39.308Z,100053.22
2024-03-09T13:23:08.173Z,100042.41
2024-03-09T13:25:36.345Z,100036.72
2024-03-09T13:28:06.241Z,100022.84
2024-03-09T13:30:41.070Z,100013.56
2024-03-09T13:33:16.426Z,100018.28
2024-03-09T13:35:50.883Z,100017.22
2024-03-09T13:38:20.907Z,100025.41
2024-03-09T13:40:49.009Z,100026.19
2024-03-09T13:43:18.308Z,100020.53
2024-03-09T13:45:48.996Z,100023.16
2024-03-09T13:48:19.604Z,100027.53
2024-03-09T13:50:47.654Z,100033.19
2024-03-09T13:53:18.792Z,100032.53
2024-03-09T13:55:48.869Z,100023.19
2024-03-09T13:58:22.251Z,100027.91
2024-03-09T14:00:52.279Z,100028.75
2024-03-09T14:03:25.010Z,100024.69
2024-03-09T14:05:53.041Z,100028.62
2024-03-09T14:08:21.533Z,100022.50
2024-03-09T14:10:52.093Z,100025.72
2024-03-09T14:13:22.538Z,100034.56
2024-03-09T14:15:50.704Z,100035.78
2024-03-09T14:18:21.692Z,100034.81
2024-03-09T14:20:53.450Z,100026.72
2024-03-09T14:23:24.409Z,100021.16
2024-03-09T14:25:54.137Z,100030.13
2024-03-09T14:28:24.224Z,100032.78
2024-03-09T14:30:52.081Z,100036.69
2024-03-09T14:33:19.912Z,100021.34
2024-03-09T14:35:48.055Z,100018.38
2024-03-09T14:38:18.081Z,100017.06
2024-03-09T14:40:53.355Z,100011.22
2024-03-09T14:43:24.837Z,100008.22
2024-03-09T14:45:52.852Z,100013.78
2024-03-09T14:48:25.278Z,99993.78
2024-03-09T14:50:53.137Z,99999.09
2024-03-09T14:53:23.505Z,99993.56
2024-03-09T14:55:52.494Z,99991.31
2024-03-09T14:58:19.815Z,99986.72
2024-03-09T15:00:52.860Z,99979.66
2024-03-09T15:03:23.775Z,99974.31
2024-03-09T15:05:54.747Z,99972.66
2024-03-09T15:08:23.519Z,99961.13
2024-03-09T15:10:59.807Z,99962.34
2024-03-09T15:13:41.830Z,99953.59
2024-03-09T15:16:13.414Z,99964.56
2024-03-09T15:18:41.958Z,99959.25
2024-03-09T15:21:10.333Z,99962.47
2024-03-09T15:23:40.942Z,99958.69
2024-03-09T15:26:09.769Z,99943.66
2024-03-09T15:28:41.390Z,99947.84
2024-03-09T15:31:11.251Z,99944.09
2024-03-09T15:33:41.175Z,99944.09
2024-03-09T15:36:12.550Z,99937.56
2024-03-09T15:38:41.649Z,99936.34
2024-03-09T15:41:13.072Z,99932.03
2024-03-09T15:43:42.441Z,99934.53
2024-03-09T15:46:13.907Z,99922.13
2024-03-09T15:48:43.126Z,99918.69
2024-03-09T15:51:13.898Z,99908.22
2024-03-09T15:57:13.896Z,99920.19
2024-03-09T15:59:42.628Z,99923.66
2024-03-09T16:02:10.439Z,99918.09
2024-03-09T16:04:39.462Z,99913.62
2024-03-09T16:10:34.011Z,99902.87
2024-03-09T16:16:26.134Z,99891.75
2024-03-09T16:19:01.211Z,99892.91
2024-03-09T16:21:46.053Z,99904.13
2024-03-09T16:24:13.764Z,99894.94
2024-03-09T16:26:41.260Z,99894.94
2024-03-09T16:29:13.147Z,99889.00
2024-03-09T16:31:40.968Z,99889.94
2024-03-09T16:34:12.527Z,99899.41
2024-03-09T16:36:40.029Z,99892.72
2024-03-09T16:39:10.732Z,99898.41
2024-03-09T16:41:40.663Z,99892.38
2024-03-09T16:44:08.425Z,99891.84
2024-03-09T16:46:35.865Z,99896.41
2024-03-09T16:49:06.738Z,99897.50
2024-03-09T16:51:34.524Z,99897.38
2024-03-09T16:54:01.865Z,99889.97
2024-03-09T16:56:30.290Z,99888.47
2024-03-09T16:58:59.924Z,99881.16
2024-03-09T17:01:29.426Z,99879.84
2024-03-09T17:04:01.258Z,99894.97
2024-03-09T17:06:29.658Z,99896.88
2024-03-09T17:08:57.267Z,99906.09
2024-03-09T17:11:28.044Z,99902.16
2024-03-09T17:13:55.804Z,99911.38
2024-03-09T17:16:24.963Z,99916.66
2024-03-09T17:18:54.899Z,99905.81
2024-03-09T17:21:25.691Z,99890.94
2024-03-09T17:23:57.686Z,99885.94
2024-03-09T17:26:33.984Z,99887.84
2024-03-09T17:29:05.025Z,99899.97
2024-03-09T17:31:34.457Z,99900.59
2024-03-09T17:34:07.953Z,99911.84
2024-03-09T17:36:35.665Z,99913.69
2024-03-09T17:39:05.498Z,99912.31
2024-03-09T17:41:36.740Z,99902.97
2024-03-09T17:44:11.770Z,99900.41
2024-03-09T17:46:43.046Z,99907.06
2024-03-09T17:49:14.380Z,99908.53
2024-03-09T17:51:47.897Z,99911.41
2024-03-09T17:54:17.760Z,99915.31
2024-03-09T17:56:46.258Z,99919.19
2024-03-09T17:59:15.792Z,99916.81
2024-03-09T18:01:45.846Z,99924.72
2024-03-09T18:04:13.522Z,99917.37
2024-03-09T18:06:40.821Z,99913.06
2024-03-09T18:09:16.864Z,99916.59
2024-03-09T18:11:45.414Z,99916.87
2024-03-09T18:14:19.835Z,99917.56
2024-03-09T18:16:50.978Z,99916.59
2024-03-09T18:19:21.591Z,99916.41
2024-03-09T18:21:49.310Z,99917.87
2024-03-09T18:24:17.287Z,99913.31
2024-03-09T18:26:47.027Z,99908.19
2024-03-09T18:29:14.816Z,99906.94
2024-03-09T18:31:45.172Z,99903.41
2024-03-09T18:34:12.983Z,99894.97
2024-03-09T18:36:42.888Z,99905.75
2024-03-09T18:39:10.600Z,99902.44
2024-03-09T18:41:37.998Z,99891.44
2024-03-09T18:44:06.022Z,99907.09
2024-03-09T18:46:34.225Z,99900.59
2024-03-09T18:49:04.477Z,99907.38
2024-03-09T18:51:32.383Z,99900.59
2024-03-09T18:53:59.952Z,99899.81
2024-03-09T18:56:27.433Z,99901.59
2024-03-09T18:59:09.876Z,99895.81
2024-03-09T19:01:37.737Z,99881.00
2024-03-09T19:04:06.335Z,99892.59
2024-03-09T19:06:34.365Z,99893.94
2024-03-09T19:09:01.685Z,99884.72
2024-03-09T19:11:32.491Z,99893.69
2024-03-09T19:14:00.190Z,99884.38
2024-03-09T19:16:28.221Z,99892.53
2024-03-09T19:18:56.382Z,99890.97
2024-03-09T19:21:25.790Z,99900.31
2024-03-09T19:23:53.790Z,99897.94
2024-03-09T19:26:50.390Z,99893.38
2024-03-09T19:29:18.775Z,99892.41
2024-03-09T19:31:47.236Z,99897.31
2024-03-09T19:34:15.180Z,99890.16
2024-03-09T19:36:43.364Z,99882.00
2024-03-09T19:39:12.222Z,99890.84
2024-03-09T19:41:39.705Z,99900.91
2024-03-09T19:44:08.895Z,99899.84
2024-03-09T19:46:39.479Z,99894.19
2024-03-09T19:49:07.875Z,99896.69
2024-03-09T19:51:37.275Z,99894.44
2024-03-09T19:54:06.431Z,99891.09
2024-03-09T19:56:34.851Z,99878.66
2024-03-09T20:02:02.737Z,99881.50
2024-03-09T20:04:31.208Z,99883.19
2024-03-09T20:07:00.772Z,99869.81
2024-03-09T20:09:28.616Z,99873.88
2024-03-09T20:11:58.124Z,99876.28
2024-03-09T20:14:30.180Z,99868.59
2024-03-09T20:17:00.161Z,99873.66
2024-03-09T20:19:28.537Z,99868.38
2024-03-09T20:21:56.609Z,99870.31
2024-03-09T20:24:24.973Z,99867.88
2024-03-09T20:26:53.385Z,99876.97
2024-03-09T20:29:21.492Z,99858.81
2024-03-09T20:31:49.910Z,99861.91
2024-03-09T20:34:18.742Z,99864.16
2024-03-09T20:36:47.015Z,99867.91
2024-03-09T20:39:15.973Z,99862.97
2024-03-09T20:41:44.406Z,99867.19
2024-03-09T20:44:13.877Z,99864.06
2024-03-09T20:46:42.950Z,99865.75
2024-03-09T20:49:10.937Z,99859.78
2024-03-09T20:51:41.762Z,99859.28
2024-03-09T20:54:10.634Z,99865.13
2024-03-09T20:56:39.943Z,99861.53
2024-03-09T20:59:11.128Z,99860.47
2024-03-09T21:01:41.653Z,99867.88
2024-03-09T21:04:10.343Z,99864.50
2024-03-09T21:06:38.876Z,99856.03
2024-03-09T21:09:07.343Z,99848.47
2024-03-09T21:11:36.965Z,99851.38
2024-03-09T21:14:06.254Z,99860.22
2024-03-09T21:16:34.809Z,99851.63
2024-03-09T21:19:06.945Z,99846.94
2024-03-09T21:21:35.321Z,99849.78
2024-03-09T21:24:04.316Z,99838.22
2024-03-09T21:26:32.281Z,99836.25
2024-03-09T21:29:00.371Z,99834.84
2024-03-09T21:31:31.144Z,99833.16
2024-03-09T21:34:00.895Z,99836.50
2024-03-09T21:36:29.040Z,99832.13
2024-03-09T21:38:56.845Z,99830.97
2024-03-09T21:41:26.061Z,99826.31
2024-03-09T21:47:03.508Z,99826.59
2024-03-09T21:49:31.971Z,99818.53
2024-03-09T21:58:17.471Z,99809.38
2024-03-09T22:00:45.074Z,99806.00
2024-03-09T22:03:14.041Z,99796.47
2024-03-09T22:05:41.649Z,99793.69
2024-03-09T22:08:10.790Z,99784.12
2024-03-09T22:10:38.555Z,99779.81
2024-03-09T22:13:07.666Z,99787.94
2024-03-09T22:15:35.270Z,99780.41
2024-03-09T22:18:07.054Z,99779.37
2024-03-09T22:20:34.740Z,99783.44
2024-03-09T22:23:02.233Z,99781.84
2024-03-09T22:25:29.900Z,99774.47
2024-03-09T22:27:57.210Z,99776.41
2024-03-09T22:30:25.144Z,99772.09
2024-03-09T22:32:54.354Z,99775.06
2024-03-09T22:35:23.976Z,99780.56
2024-03-09T22:37:52.721Z,99775.75
2024-03-09T22:40:21.822Z,99783.44
2024-03-09T22:42:49.380Z,99772.53
2024-03-09T22:45:19.226Z,99774.34
2024-03-09T22:47:47.433Z,99768.47
2024-03-09T22:50:18.400Z,99778.75
2024-03-09T22:52:46.797Z,99775.53
2024-03-09T22:55:16.404Z,99782.56
2024-03-09T22:57:44.823Z,99776.12
2024-03-09T23:00:34.922Z,99770.38
2024-03-09T23:03:02.919Z,99775.69
2024-03-09T23:05:32.382Z,99771.69
2024-03-09T23:08:00.510Z,99776.72
2024-03-09T23:10:29.927Z,99781.38
2024-03-09T23:12:57.537Z,99770.97
2024-03-09T23:15:45.789Z,99776.25
2024-03-09T23:18:18.803Z,99782.56
2024-03-09T23:20:48.481Z,99781.03
2024-03-09T23:23:17.277Z,99771.19
2024-03-09T23:25:44.592Z,99771.41
2024-03-09T23:28:11.889Z,99756.09
2024-03-09T23:30:39.463Z,99763.28
2024-03-09T23:33:08.003Z,99766.19
2024-03-09T23:35:35.892Z,99779.00
2024-03-09T23:38:06.657Z,99771.69
2024-03-09T23:40:34.315Z,99770.97
2024-03-09T23:43:02.088Z,99777.66
2024-03-09T23:45:30.027Z,99789.06
2024-03-09T23:47:57.353Z,99788.94
2024-03-09T23:50:25.353Z,99798.06
2024-03-09T23:52:55.038Z,99790.78
2024-03-09T23:55:23.304Z,99780.25
2024-03-09T23:57:50.744Z,99776.41
